Time;durP1;ratioP1;P1;durP2;ratioP2;P2;SDS_P1;SDS_P2;PMS_P1;PMS_P2;Temp;Humidity;BMP_temperature;BMP_pressure;BME280_temperature;BME280_humidity;BME280_pressure;Samples;Min_cycle;Max_cycle;Signal;HPM_P1;HPM_P2
2021/07/08 00:01:44;;;;;;;3.73;1.53;;;;;;;17.30;100.00;101612.25;5015381;28;20498;-73
2021/07/08 00:04:11;;;;;;;0.97;0.83;;;;;;;17.30;100.00;101614.19;5015437;28;20452;-73
2021/07/08 00:06:38;;;;;;;1.20;1.10;;;;;;;17.32;100.00;101610.03;5015328;28;20463;-74
2021/07/08 00:09:06;;;;;;;2.17;1.50;;;;;;;17.29;100.00;101609.84;5015721;28;20429;-73
2021/07/08 00:11:33;;;;;;;1.93;1.50;;;;;;;17.30;100.00;101609.53;5015137;28;20444;-73
2021/07/08 00:14:00;;;;;;;2.50;2.07;;;;;;;17.28;100.00;101611.78;5015107;28;20445;-73
2021/07/08 00:16:26;;;;;;;1.83;1.20;;;;;;;17.26;100.00;101608.53;5015073;28;20444;-75
2021/07/08 00:18:53;;;;;;;1.77;1.60;;;;;;;17.21;100.00;101602.44;5015087;28;20448;-74
2021/07/08 00:21:20;;;;;;;1.43;1.20;;;;;;;17.21;100.00;101608.72;5014958;28;20538;-74
2021/07/08 00:23:47;;;;;;;1.37;1.10;;;;;;;17.18;100.00;101603.91;5014728;28;20957;-74
2021/07/08 00:26:15;;;;;;;1.40;1.30;;;;;;;17.14;100.00;101600.19;5014593;28;20440;-73
2021/07/08 00:28:42;;;;;;;2.77;1.57;;;;;;;17.10;100.00;101599.22;5014347;28;20466;-74
2021/07/08 00:31:09;;;;;;;0.97;0.83;;;;;;;17.06;100.00;101600.97;5014789;28;20443;-73
2021/07/08 00:33:35;;;;;;;1.00;0.80;;;;;;;17.04;100.00;101600.47;5014718;28;20451;-74
2021/07/08 00:36:02;;;;;;;4.23;1.67;;;;;;;16.99;100.00;101597.88;5014598;28;20447;-74
2021/07/08 00:38:28;;;;;;;3.03;1.47;;;;;;;16.93;100.00;101594.50;5014593;28;20818;-73
2021/07/08 00:40:55;;;;;;;5.03;1.57;;;;;;;16.88;100.00;101597.41;5014530;28;20484;-74
2021/07/08 00:43:23;;;;;;;1.10;1.00;;;;;;;16.85;100.00;101590.63;5014581;28;20448;-73
2021/07/08 00:45:49;;;;;;;1.93;1.80;;;;;;;16.86;100.00;101588.69;5014493;28;20440;-74
2021/07/08 00:48:15;;;;;;;1.63;1.27;;;;;;;16.84;100.00;101582.75;5014195;28;20981;-73
2021/07/08 00:50:46;;;;;;;1.10;1.00;;;;;;;16.82;100.00;101583.06;5014290;28;20440;-73
2021/07/08 00:53:14;;;;;;;2.67;1.30;;;;;;;16.85;100.00;101576.94;5014518;28;20436;-73
2021/07/08 00:55:44;;;;;;;1.23;1.13;;;;;;;16.82;100.00;101574.03;5014388;28;20440;-72
2021/07/08 00:58:11;;;;;;;3.00;1.83;;;;;;;16.85;100.00;101578.88;5021647;28;20474;-73
2021/07/08 01:00:39;;;;;;;1.37;1.13;;;;;;;16.84;100.00;101586.28;5033623;28;21011;-74
2021/07/08 01:03:08;;;;;;;2.00;1.17;;;;;;;16.87;100.00;101585.66;5033926;28;20458;-74
2021/07/08 01:05:37;;;;;;;3.00;1.40;;;;;;;16.88;100.00;101587.25;5023206;28;20444;-73
2021/07/08 01:08:05;;;;;;;1.33;1.23;;;;;;;16.82;100.00;101584.97;5026948;28;20494;-74
2021/07/08 01:10:32;;;;;;;1.87;1.43;;;;;;;16.88;100.00;101587.25;5018532;28;20440;-73
2021/07/08 01:12:59;;;;;;;2.27;1.60;;;;;;;16.88;100.00;101586.44;5033951;28;20447;-73
2021/07/08 01:15:25;;;;;;;1.50;1.20;;;;;;;16.87;100.00;101590.31;5022688;28;20444;-73
2021/07/08 01:17:53;;;;;;;1.00;0.97;;;;;;;16.89;100.00;101588.84;5014031;28;20468;-74
2021/07/08 01:20:22;;;;;;;1.23;0.97;;;;;;;16.89;100.00;101593.53;5014183;28;20448;-74
2021/07/08 01:22:57;;;;;;;2.50;1.53;;;;;;;16.86;100.00;101588.69;5013780;28;20439;-74
2021/07/08 01:25:25;;;;;;;1.97;1.37;;;;;;;16.85;100.00;101585.16;5013992;28;20428;-73
2021/07/08 01:27:52;;;;;;;1.60;1.20;;;;;;;16.82;100.00;101588.53;5026695;28;20992;-74
2021/07/08 01:30:20;;;;;;;1.77;1.60;;;;;;;16.80;100.00;101589.97;5033731;28;20447;-74
2021/07/08 01:32:47;;;;;;;1.33;1.17;;;;;;;16.77;100.00;101588.66;5033708;28;20443;-74
2021/07/08 01:35:14;;;;;;;1.80;1.60;;;;;;;16.78;100.00;101587.56;5033772;28;20443;-73
2021/07/08 01:37:41;;;;;;;1.83;1.73;;;;;;;16.76;100.00;101584.31;5033118;28;21003;-74
2021/07/08 01:40:11;;;;;;;1.70;1.43;;;;;;;16.75;100.00;101593.66;5032229;28;20458;-73
2021/07/08 01:42:38;;;;;;;1.70;1.57;;;;;;;16.68;100.00;101597.94;5033271;28;20486;-74
2021/07/08 01:45:06;;;;;;;1.60;1.50;;;;;;;16.61;100.00;101591.03;5033468;28;20903;-74
2021/07/08 01:47:33;;;;;;;1.73;1.27;;;;;;;16.54;100.00;101596.13;5033256;28;20467;-74
2021/07/08 01:50:00;;;;;;;1.67;1.20;;;;;;;16.51;100.00;101598.69;5033667;28;20820;-74
2021/07/08 01:52:26;;;;;;;1.70;1.57;;;;;;;16.54;100.00;101595.31;5032984;28;20964;-74
2021/07/08 01:54:53;;;;;;;1.67;1.20;;;;;;;16.45;100.00;101589.81;5033718;28;20455;-74
2021/07/08 01:57:21;;;;;;;2.40;1.40;;;;;;;16.49;100.00;101590.00;5033644;28;20474;-74
2021/07/08 01:59:47;;;;;;;2.63;1.43;;;;;;;16.56;100.00;101582.16;5033294;28;20451;-75
2021/07/08 02:02:14;;;;;;;2.10;1.50;;;;;;;16.54;100.00;101578.91;5033120;28;20486;-74
2021/07/08 02:04:40;;;;;;;2.07;1.47;;;;;;;16.52;100.00;101578.44;5033252;28;20450;-74
2021/07/08 02:07:06;;;;;;;1.60;1.10;;;;;;;16.55;100.00;101583.25;5049285;22;20494;-72
2021/07/08 02:09:33;;;;;;;2.43;1.30;;;;;;;16.59;100.00;101582.31;5051970;28;20473;-70
2021/07/08 02:12:00;;;;;;;1.57;1.47;;;;;;;16.60;100.00;101588.56;5052842;28;20438;-71
2021/07/08 02:14:28;;;;;;;3.00;1.70;;;;;;;16.60;100.00;101596.78;5052814;28;20442;-70
2021/07/08 02:16:55;;;;;;;1.40;1.30;;;;;;;16.55;100.00;101596.94;5052651;28;20453;-72
2021/07/08 02:19:22;;;;;;;1.83;1.40;;;;;;;16.58;100.00;101593.56;5072805;28;20441;-70
2021/07/08 02:21:49;;;;;;;1.93;1.47;;;;;;;16.59;100.00;101597.91;5072267;28;20484;-72
2021/07/08 02:24:16;;;;;;;1.93;1.17;;;;;;;16.55;100.00;101591.47;5072720;28;20444;-71
2021/07/08 02:26:42;;;;;;;1.47;1.33;;;;;;;16.47;100.00;101586.75;5072711;28;20452;-70
2021/07/08 02:29:09;;;;;;;3.30;1.70;;;;;;;16.56;100.00;101587.63;5072280;28;20472;-72
2021/07/08 02:31:37;;;;;;;1.60;1.50;;;;;;;16.55;100.00;101594.19;5072494;28;20437;-72
2021/07/08 02:34:05;;;;;;;2.00;1.80;;;;;;;16.51;100.00;101593.22;5072670;28;20453;-72
2021/07/08 02:36:31;;;;;;;1.50;1.30;;;;;;;16.42;100.00;101606.06;5072699;28;20442;-72
2021/07/08 02:38:58;;;;;;;1.43;1.33;;;;;;;16.42;100.00;101603.31;5072330;28;20970;-72
2021/07/08 02:41:24;;;;;;;1.70;1.60;;;;;;;16.39;100.00;101608.31;5072567;28;20485;-72
2021/07/08 02:43:51;;;;;;;2.53;1.83;;;;;;;16.38;100.00;101612.16;5072565;28;20445;-72
2021/07/08 02:46:17;;;;;;;2.60;1.63;;;;;;;16.38;100.00;101609.44;5072596;28;20866;-71
2021/07/08 02:48:45;;;;;;;2.37;1.57;;;;;;;16.44;100.00;101610.09;5072394;28;20520;-72
2021/07/08 02:51:12;;;;;;;1.60;0.93;;;;;;;16.48;100.00;101607.53;5072944;28;20429;-72
2021/07/08 02:53:38;;;;;;;1.40;1.20;;;;;;;16.46;100.00;101618.78;5076036;28;20441;-71
2021/07/08 02:56:05;;;;;;;2.10;1.73;;;;;;;16.44;100.00;101620.22;5075969;28;20811;-72
2021/07/08 02:58:31;;;;;;;1.53;1.40;;;;;;;16.47;100.00;101614.09;5075998;28;20461;-72
2021/07/08 03:00:58;;;;;;;2.83;2.07;;;;;;;16.48;100.00;101610.28;5075561;28;20822;-72
2021/07/08 03:03:24;;;;;;;1.87;1.47;;;;;;;16.48;100.00;101613.81;5076011;28;20830;-70
2021/07/08 03:05:52;;;;;;;2.17;1.53;;;;;;;16.52;100.00;101608.53;5075841;28;20437;-71
2021/07/08 03:08:18;;;;;;;1.40;1.30;;;;;;;16.49;100.00;101615.41;5075433;28;20480;-72
2021/07/08 03:10:45;;;;;;;2.27;1.37;;;;;;;16.55;100.00;101614.16;5075781;28;20464;-72
2021/07/08 03:13:11;;;;;;;2.00;1.20;;;;;;;16.49;100.00;101614.63;5069532;28;20827;-71
2021/07/08 03:15:38;;;;;;;2.17;1.97;;;;;;;16.56;100.00;101626.72;5055222;28;20939;-71
2021/07/08 03:18:05;;;;;;;1.73;1.57;;;;;;;16.47;100.00;101628.63;5055435;28;20470;-71
2021/07/08 03:20:34;;;;;;;1.23;1.13;;;;;;;16.50;100.00;101627.97;5055613;28;20442;-71
2021/07/08 03:23:04;;;;;;;2.03;1.30;;;;;;;16.50;100.00;101618.97;5055417;28;20482;-72
2021/07/08 03:25:31;;;;;;;1.90;1.40;;;;;;;16.50;100.00;101617.03;5055532;28;20434;-70
2021/07/08 03:27:59;;;;;;;1.77;1.20;;;;;;;16.50;100.00;101616.22;5055133;28;20462;-72
2021/07/08 03:30:28;;;;;;;9.13;1.67;;;;;;;16.47;100.00;101612.22;5055025;28;20949;-70
2021/07/08 03:32:54;;;;;;;1.90;1.20;;;;;;;16.50;100.00;101625.22;5055488;28;20446;-72
2021/07/08 03:35:21;;;;;;;1.83;1.63;;;;;;;16.50;100.00;101632.63;5054946;28;20950;-72
2021/07/08 03:37:47;;;;;;;1.37;1.27;;;;;;;16.54;100.00;101625.41;5054721;28;20970;-72
2021/07/08 03:40:16;;;;;;;3.40;1.60;;;;;;;16.61;100.00;101631.25;5055192;28;20442;-73
2021/07/08 03:42:44;;;;;;;2.83;1.97;;;;;;;16.65;100.00;101634.97;5055035;28;20488;-72
2021/07/08 03:45:12;;;;;;;2.20;1.57;;;;;;;16.67;100.00;101635.44;5055073;28;20454;-72
2021/07/08 03:47:39;;;;;;;1.87;1.17;;;;;;;16.69;100.00;101635.13;5054670;28;20971;-72
2021/07/08 03:50:08;;;;;;;2.20;1.90;;;;;;;16.67;100.00;101629.16;5054924;28;20442;-72
2021/07/08 03:52:34;;;;;;;2.00;1.53;;;;;;;16.78;100.00;101634.06;5054925;28;20810;-72
2021/07/08 03:55:00;;;;;;;1.23;1.10;;;;;;;16.85;100.00;101637.13;5054896;28;20446;-73
2021/07/08 03:57:28;;;;;;;2.53;1.70;;;;;;;16.93;100.00;101642.97;5054702;28;20465;-71
2021/07/08 03:59:55;;;;;;;1.43;1.27;;;;;;;17.00;100.00;101643.28;5054670;28;20453;-72
2021/07/08 04:02:21;;;;;;;2.53;1.47;;;;;;;17.04;100.00;101636.84;5053967;28;20999;-72
2021/07/08 04:04:48;;;;;;;1.90;1.40;;;;;;;17.13;100.00;101636.88;5053805;28;20978;-72
2021/07/08 04:07:14;;;;;;;1.57;1.40;;;;;;;17.23;100.00;101638.53;5054313;28;20479;-70
2021/07/08 04:09:41;;;;;;;2.80;1.87;;;;;;;17.35;100.00;101639.50;5054042;28;20458;-69
2021/07/08 04:12:09;;;;;;;1.97;1.60;;;;;;;17.45;100.00;101652.09;5053140;28;20812;-72
2021/07/08 04:14:37;;;;;;;3.20;1.60;;;;;;;17.57;100.00;101651.44;5054413;28;20454;-73
2021/07/08 04:17:03;;;;;;;3.13;1.50;;;;;;;17.65;100.00;101645.94;5054388;28;20442;-73
2021/07/08 04:19:30;;;;;;;2.23;1.60;;;;;;;17.78;100.00;101646.94;5054124;28;20849;-71
2021/07/08 04:21:56;;;;;;;3.07;2.23;;;;;;;17.89;100.00;101641.94;5054301;28;20489;-71
2021/07/08 04:24:23;;;;;;;2.60;1.77;;;;;;;17.95;100.00;101639.84;5054397;28;20459;-72
2021/07/08 04:26:49;;;;;;;1.63;1.53;;;;;;;18.01;100.00;101641.25;5054241;28;20450;-73
2021/07/08 04:29:16;;;;;;;2.00;1.70;;;;;;;18.05;100.00;101634.00;5054235;28;20470;-72
2021/07/08 04:31:43;;;;;;;1.70;1.37;;;;;;;18.14;100.00;101634.78;5054159;28;20449;-72
2021/07/08 04:34:10;;;;;;;2.33;2.13;;;;;;;18.23;100.00;101624.59;5054110;28;20445;-72
2021/07/08 04:36:36;;;;;;;1.73;1.50;;;;;;;18.34;100.00;101628.63;5054193;28;20445;-71
2021/07/08 04:39:04;;;;;;;2.53;1.93;;;;;;;18.49;100.00;101632.75;5054048;28;20500;-72
2021/07/08 04:41:30;;;;;;;2.57;2.30;;;;;;;18.64;100.00;101634.94;5053930;28;20449;-70
2021/07/08 04:43:58;;;;;;;2.17;2.00;;;;;;;18.77;100.00;101638.63;5054028;28;20441;-71
2021/07/08 04:46:25;;;;;;;2.33;2.13;;;;;;;18.90;100.00;101628.53;5053907;28;20533;-70
2021/07/08 04:48:54;;;;;;;2.30;1.77;;;;;;;19.03;100.00;101623.94;5053874;28;20576;-72
2021/07/08 04:51:21;;;;;;;2.90;1.83;;;;;;;19.15;100.00;101624.81;5053847;28;20542;-71
2021/07/08 04:53:47;;;;;;;2.30;1.90;;;;;;;19.27;100.00;101624.09;5053373;28;20463;-71
2021/07/08 04:56:14;;;;;;;1.50;1.40;;;;;;;19.41;100.00;101623.84;5053675;28;20438;-72
2021/07/08 04:58:40;;;;;;;4.53;2.30;;;;;;;19.51;100.00;101622.63;5053549;28;20459;-71
2021/07/08 05:01:07;;;;;;;1.60;1.20;;;;;;;19.62;100.00;101626.63;5053471;28;20447;-72
2021/07/08 05:03:33;;;;;;;4.13;2.80;;;;;;;19.74;100.00;101626.66;5053503;28;20489;-71
2021/07/08 05:06:01;;;;;;;3.30;2.27;;;;;;;19.83;100.00;101619.16;5053521;28;20445;-72
2021/07/08 05:08:27;;;;;;;3.30;2.03;;;;;;;19.95;100.00;101620.31;5052580;28;20484;-71
2021/07/08 05:10:54;;;;;;;2.77;2.00;;;;;;;20.04;100.00;101623.78;5052973;28;20452;-70
2021/07/08 05:13:20;;;;;;;2.20;1.90;;;;;;;20.13;100.00;101627.22;5052364;28;20441;-69
2021/07/08 05:15:47;;;;;;;4.57;2.13;;;;;;;20.20;100.00;101626.69;5052535;28;20808;-71
2021/07/08 05:18:13;;;;;;;2.20;1.90;;;;;;;20.24;100.00;101627.63;5052593;28;20462;-72
2021/07/08 05:20:40;;;;;;;4.33;2.70;;;;;;;20.24;99.63;101625.66;5052364;28;20943;-71
2021/07/08 05:23:14;;;;;;;2.30;2.10;;;;;;;20.24;98.16;101625.66;5052475;28;20477;-72
2021/07/08 05:25:40;;;;;;;3.43;2.27;;;;;;;20.24;96.74;101622.13;5052564;28;20470;-71
2021/07/08 05:28:07;;;;;;;1.70;1.60;;;;;;;20.27;95.51;101626.91;5052439;28;20469;-72
2021/07/08 05:30:33;;;;;;;2.47;2.00;;;;;;;20.35;94.92;101618.56;5052222;28;20932;-71
2021/07/08 05:33:00;;;;;;;2.93;2.43;;;;;;;20.39;95.24;101622.22;5052435;28;20442;-71
2021/07/08 05:35:27;;;;;;;1.60;1.37;;;;;;;20.44;96.26;101631.41;5052363;28;20454;-72
2021/07/08 05:37:53;;;;;;;1.87;1.43;;;;;;;20.48;97.48;101627.66;5052350;28;20458;-71
2021/07/08 05:40:21;;;;;;;2.30;1.80;;;;;;;20.50;97.88;101627.34;5052345;28;20449;-71
2021/07/08 05:42:48;;;;;;;2.10;1.87;;;;;;;20.51;97.90;101632.50;5052338;28;20486;-72
2021/07/08 05:45:14;;;;;;;1.93;1.63;;;;;;;20.55;98.16;101640.88;5052245;28;20446;-71
2021/07/08 05:47:41;;;;;;;2.53;1.87;;;;;;;20.57;97.72;101627.56;5052174;28;20554;-70
2021/07/08 05:50:09;;;;;;;1.93;1.40;;;;;;;20.62;97.06;101632.84;5052239;28;20442;-72
2021/07/08 05:52:36;;;;;;;1.90;1.70;;;;;;;20.68;96.08;101636.19;5052230;28;20438;-71
2021/07/08 05:55:02;;;;;;;3.50;2.10;;;;;;;20.73;95.64;101638.69;5052184;28;20446;-71
2021/07/08 05:57:30;;;;;;;1.87;1.77;;;;;;;20.79;94.99;101637.31;5052120;28;20462;-70
2021/07/08 05:59:57;;;;;;;2.10;1.87;;;;;;;20.83;95.44;101635.47;5052205;28;20457;-72
2021/07/08 06:02:23;;;;;;;1.80;1.70;;;;;;;20.90;95.00;101642.03;5051946;28;20489;-71
2021/07/08 06:04:50;;;;;;;1.93;1.80;;;;;;;20.96;95.84;101641.78;5051773;28;21043;-71
2021/07/08 06:07:16;;;;;;;3.20;2.23;;;;;;;20.98;96.02;101645.78;5015598;28;1031752;-71
2021/07/08 06:09:43;;;;;;;2.10;1.63;;;;;;;21.04;95.54;101651.88;5052942;28;20435;-71
2021/07/08 06:12:09;;;;;;;2.10;1.70;;;;;;;21.08;94.64;101645.34;5052855;28;20446;-72
2021/07/08 06:14:37;;;;;;;2.53;2.33;;;;;;;21.10;94.53;101650.50;5052854;28;20453;-71
2021/07/08 06:17:07;;;;;;;1.97;1.67;;;;;;;21.10;94.48;101656.81;5052671;28;20485;-72
2021/07/08 06:19:33;;;;;;;2.20;2.00;;;;;;;21.07;94.37;101653.94;5052713;28;20457;-70
2021/07/08 06:21:59;;;;;;;2.90;1.97;;;;;;;21.06;94.17;101652.31;5052657;28;20450;-71
2021/07/08 06:24:26;;;;;;;2.13;1.70;;;;;;;20.98;94.49;101650.50;5052669;28;20453;-70
2021/07/08 06:26:52;;;;;;;2.00;1.77;;;;;;;20.94;94.20;101644.06;5054504;28;20442;-71
2021/07/08 06:29:19;;;;;;;4.90;1.87;;;;;;;20.88;94.39;101649.00;5056730;28;20837;-71
2021/07/08 06:31:46;;;;;;;6.27;2.40;;;;;;;20.84;94.61;101650.84;5056086;28;20963;-69
2021/07/08 06:34:13;;;;;;;4.37;2.37;;;;;;;20.82;94.50;101656.72;5056085;28;20956;-71
2021/07/08 06:36:39;;;;;;;2.83;1.97;;;;;;;20.83;95.36;101652.00;5056156;28;20936;-70
2021/07/08 06:39:06;;;;;;;2.50;2.30;;;;;;;20.82;96.11;101644.91;5056316;28;20462;-72
2021/07/08 06:41:33;;;;;;;3.57;2.40;;;;;;;20.80;95.79;101650.72;5056281;28;20442;-70
2021/07/08 06:44:00;;;;;;;2.80;2.03;;;;;;;20.78;95.22;101653.03;5056191;28;20490;-71
2021/07/08 06:46:29;;;;;;;3.10;2.40;;;;;;;20.79;95.78;101653.84;5056207;28;20442;-71
2021/07/08 06:48:57;;;;;;;2.43;2.23;;;;;;;20.75;95.76;101647.41;5055939;28;20469;-71
2021/07/08 06:51:24;;;;;;;4.83;2.90;;;;;;;20.73;96.07;101656.03;5056042;28;20461;-71
2021/07/08 06:53:51;;;;;;;2.97;2.40;;;;;;;20.75;96.32;101666.69;5056001;28;20438;-71
2021/07/08 06:56:18;;;;;;;6.70;3.27;;;;;;;20.75;96.44;101672.19;5055988;28;20445;-70
2021/07/08 06:58:44;;;;;;;3.23;2.03;;;;;;;20.71;95.96;101669.31;5055608;28;20867;-69
2021/07/08 07:01:11;;;;;;;2.60;2.40;;;;;;;20.67;93.71;101673.91;5055908;28;20450;-71
2021/07/08 07:03:37;;;;;;;2.80;1.97;;;;;;;20.65;91.78;101670.69;5055875;28;20486;-69
2021/07/08 07:06:05;;;;;;;2.63;1.63;;;;;;;20.65;92.16;101665.19;5055850;28;20450;-69
2021/07/08 07:08:33;;;;;;;3.77;2.53;;;;;;;20.67;93.17;101665.63;5055527;28;20488;-71
2021/07/08 07:11:00;;;;;;;2.97;2.30;;;;;;;20.71;93.85;101666.56;5055484;28;20935;-72
2021/07/08 07:13:27;;;;;;;3.10;2.30;;;;;;;20.73;94.60;101666.25;5055763;28;20438;-72
2021/07/08 07:15:54;;;;;;;3.63;2.37;;;;;;;20.73;95.17;101671.75;5055431;28;20939;-73
2021/07/08 07:18:20;;;;;;;3.23;2.60;;;;;;;20.74;95.24;101676.91;5055700;28;20876;-72
2021/07/08 07:20:47;;;;;;;5.73;2.37;;;;;;;20.79;95.30;101681.38;5055312;28;20951;-73
2021/07/08 07:23:15;;;;;;;4.03;2.60;;;;;;;20.82;95.87;101675.19;5055306;28;20478;-70
2021/07/08 07:25:41;;;;;;;3.40;1.93;;;;;;;20.86;95.17;101687.13;5055035;28;20442;-71
2021/07/08 07:28:09;;;;;;;2.77;2.37;;;;;;;20.95;94.79;101687.00;5035596;28;20521;-72
2021/07/08 07:30:36;;;;;;;4.10;2.47;;;;;;;21.05;94.69;101673.56;5035432;28;20456;-71
2021/07/08 07:33:02;;;;;;;6.60;2.23;;;;;;;21.16;94.22;101677.47;5035434;28;20435;-72
2021/07/08 07:35:29;;;;;;;2.17;1.67;;;;;;;21.26;94.14;101672.63;5035459;28;20446;-73
2021/07/08 07:37:55;;;;;;;2.80;2.13;;;;;;;21.30;93.54;101666.09;5035368;28;20466;-72
2021/07/08 07:40:23;;;;;;;3.80;2.10;;;;;;;21.40;92.54;101668.38;5035385;28;20446;-73
2021/07/08 07:42:50;;;;;;;4.63;2.13;;;;;;;21.46;92.41;101671.69;5035186;28;20492;-73
2021/07/08 07:45:18;;;;;;;4.20;2.57;;;;;;;21.45;92.90;101672.06;5034925;28;20438;-72
2021/07/08 07:47:46;;;;;;;3.83;2.53;;;;;;;21.41;93.14;101664.47;5034886;28;20852;-72
2021/07/08 07:50:12;;;;;;;2.07;1.80;;;;;;;21.42;92.72;101673.53;5035316;28;20840;-72
2021/07/08 07:52:39;;;;;;;6.40;1.70;;;;;;;21.42;92.62;101679.84;5035127;28;20458;-72
2021/07/08 07:55:06;;;;;;;4.00;1.57;;;;;;;21.42;93.16;101676.28;5035104;28;20439;-73
2021/07/08 07:57:35;;;;;;;1.47;1.37;;;;;;;21.42;93.95;101677.09;5034963;28;20459;-72
2021/07/08 08:00:01;;;;;;;3.00;1.60;;;;;;;21.41;93.73;101681.00;5034811;28;20831;-72
2021/07/08 08:02:28;;;;;;;2.30;1.40;;;;;;;21.37;94.56;101673.78;5034858;28;20454;-73
2021/07/08 08:05:06;;;;;;;2.23;1.83;;;;;;;21.31;94.97;101667.72;5034958;28;20439;-73
2021/07/08 08:10:19;;;;;;;1.77;1.67;;;;;;;21.15;95.39;101653.81;5089211;22;20558;-70
2021/07/08 08:12:47;;;;;;;1.97;1.37;;;;;;;21.13;95.15;101658.06;5074738;28;20442;-69
2021/07/08 08:15:15;;;;;;;4.53;1.17;;;;;;;21.09;95.17;101652.44;5074420;28;20943;-68
2021/07/08 08:17:41;;;;;;;1.50;1.40;;;;;;;21.10;95.27;101656.81;5074423;28;20448;-68
2021/07/08 08:20:09;;;;;;;2.07;1.70;;;;;;;21.08;95.16;101650.03;5074326;28;20457;-68
2021/07/08 08:22:37;;;;;;;3.03;1.53;;;;;;;21.04;94.72;101666.47;5074179;28;20429;-70
2021/07/08 08:25:04;;;;;;;1.20;1.10;;;;;;;21.06;94.19;101666.09;5073917;28;21010;-69
2021/07/08 08:27:31;;;;;;;2.50;1.30;;;;;;;21.04;95.16;101676.69;5074191;28;20445;-68
2021/07/08 08:29:59;;;;;;;3.70;2.00;;;;;;;21.03;95.92;101680.56;5073861;28;20530;-69
2021/07/08 08:32:25;;;;;;;2.37;1.70;;;;;;;21.06;95.92;101686.19;5073843;28;20943;-69
2021/07/08 08:34:51;;;;;;;2.23;1.90;;;;;;;21.03;95.27;101686.91;5074163;28;20433;-70
2021/07/08 08:37:19;;;;;;;2.77;1.87;;;;;;;20.96;93.44;101691.38;5074147;28;20449;-68
2021/07/08 08:39:45;;;;;;;2.03;1.23;;;;;;;20.98;94.63;101683.56;5073825;28;20913;-69
2021/07/08 08:42:12;;;;;;;2.57;1.67;;;;;;;20.96;95.38;101685.88;5074084;28;20445;-71
2021/07/08 08:44:38;;;;;;;2.13;1.93;;;;;;;20.94;95.78;101694.47;5074079;28;20489;-69
2021/07/08 08:47:11;;;;;;;2.53;1.87;;;;;;;20.92;96.59;101694.81;5073977;28;20441;-72
2021/07/08 08:49:38;;;;;;;2.50;1.60;;;;;;;20.89;96.61;101698.28;5073747;28;20465;-70
2021/07/08 08:52:07;;;;;;;2.03;1.83;;;;;;;20.84;97.20;101706.72;5073918;28;20438;-70
2021/07/08 08:54:34;;;;;;;2.30;1.70;;;;;;;20.83;97.15;101710.63;5073996;28;20438;-70
2021/07/08 08:57:00;;;;;;;4.80;1.60;;;;;;;20.85;97.91;101693.75;5073834;28;20441;-70
2021/07/08 08:59:27;;;;;;;1.97;1.77;;;;;;;20.86;97.75;101693.44;5073376;28;20977;-71
2021/07/08 09:02:18;;;;;;;2.10;1.60;;;;;;;20.89;97.88;101697.44;5073819;28;20457;-70
2021/07/08 09:04:45;;;;;;;2.40;1.90;;;;;;;20.88;98.55;101696.63;5073754;28;20485;-70
2021/07/08 09:07:26;;;;;;;1.97;1.33;;;;;;;20.90;98.81;101694.34;5073724;28;20433;-69
2021/07/08 09:09:54;;;;;;;2.17;1.97;;;;;;;20.88;98.37;101685.63;5073305;28;20473;-71
2021/07/08 09:12:23;;;;;;;2.60;2.40;;;;;;;20.90;98.68;101677.84;5073651;28;20437;-70
2021/07/08 09:14:50;;;;;;;2.37;2.17;;;;;;;20.94;98.52;101666.94;5073633;28;20540;-71
2021/07/08 09:17:19;;;;;;;2.17;1.77;;;;;;;20.97;98.75;101659.91;5073276;28;20974;-69
2021/07/08 09:19:46;;;;;;;6.90;2.13;;;;;;;20.99;98.29;101663.16;5073514;28;20468;-71
2021/07/08 09:22:13;;;;;;;2.50;2.00;;;;;;;21.04;98.58;101665.66;5073533;28;20448;-70
2021/07/08 09:24:40;;;;;;;1.63;1.53;;;;;;;21.10;99.01;101672.53;5073219;28;20496;-70
2021/07/08 09:27:08;;;;;;;2.30;1.80;;;;;;;21.10;98.72;101670.56;5073358;28;20460;-71
2021/07/08 09:29:36;;;;;;;2.57;2.00;;;;;;;21.15;98.84;101666.78;5073097;28;20500;-71
2021/07/08 09:32:06;;;;;;;3.23;2.30;;;;;;;21.18;99.18;101677.13;5073159;28;20950;-69
2021/07/08 09:34:35;;;;;;;2.57;1.97;;;;;;;21.23;98.73;101674.13;5073357;28;20834;-70
2021/07/08 09:37:05;;;;;;;4.43;2.60;;;;;;;21.29;98.24;101683.75;5073282;28;20441;-71
2021/07/08 09:39:33;;;;;;;2.33;1.77;;;;;;;21.30;97.72;101681.81;5073573;28;20457;-71
2021/07/08 09:41:59;;;;;;;2.10;1.90;;;;;;;21.34;96.76;101675.28;5072975;28;20969;-69
2021/07/08 09:44:28;;;;;;;3.03;2.20;;;;;;;21.33;95.86;101679.19;5073119;28;20485;-71
2021/07/08 09:46:55;;;;;;;2.13;1.93;;;;;;;21.30;95.93;101676.31;5073031;28;20445;-71
2021/07/08 09:49:23;;;;;;;1.67;1.57;;;;;;;21.34;96.95;101678.06;5073073;28;20466;-71
2021/07/08 09:51:51;;;;;;;2.50;2.03;;;;;;;21.36;97.27;101681.25;5072849;28;20967;-70
2021/07/08 09:54:44;;;;;;;6.93;2.30;;;;;;;21.24;93.91;101681.22;5073268;28;20490;-71
2021/07/08 09:57:31;;;;;;;2.60;1.93;;;;;;;21.30;93.89;101674.34;5072768;28;20492;-71
2021/07/08 09:59:58;;;;;;;2.57;1.97;;;;;;;21.25;93.33;101674.59;5073043;28;20835;-70
2021/07/08 10:02:30;;;;;;;2.37;2.17;;;;;;;21.36;93.96;101672.97;5075816;28;20455;-71
2021/07/08 10:04:56;;;;;;;3.60;2.50;;;;;;;21.44;94.69;101679.53;5077409;28;20518;-71
2021/07/08 10:07:25;;;;;;;3.00;2.67;;;;;;;21.47;95.45;101689.88;5076841;28;20992;-71
2021/07/08 10:09:52;;;;;;;5.90;1.77;;;;;;;21.52;94.17;101691.56;5076682;28;20480;-71
2021/07/08 10:12:19;;;;;;;2.47;2.23;;;;;;;21.62;93.96;101702.09;5076903;28;20433;-71
2021/07/08 10:14:47;;;;;;;3.03;2.33;;;;;;;21.69;93.13;101696.78;5076630;28;20931;-69
2021/07/08 10:17:16;;;;;;;1.67;1.53;;;;;;;21.66;92.66;101692.00;5076888;28;20441;-70
2021/07/08 10:19:45;;;;;;;1.90;1.80;;;;;;;21.64;93.59;101699.78;5076821;28;20464;-71
2021/07/08 10:22:12;;;;;;;2.00;1.70;;;;;;;21.62;94.70;101702.09;5072369;28;20950;-69
2021/07/08 10:24:40;;;;;;;2.50;2.17;;;;;;;21.56;94.85;101703.47;5072189;28;20477;-71
2021/07/08 10:27:07;;;;;;;6.10;2.33;;;;;;;21.55;94.09;101715.66;5056802;28;20455;-68
2021/07/08 10:29:37;;;;;;;9.63;1.90;;;;;;;21.48;94.42;101718.22;5063341;28;20484;-70
2021/07/08 10:32:04;;;;;;;2.93;1.77;;;;;;;21.42;94.78;101718.44;5076308;28;20450;-70
2021/07/08 10:34:43;;;;;;;2.93;2.20;;;;;;;21.32;95.58;101729.94;5077184;28;20441;-73
2021/07/08 10:37:10;;;;;;;1.40;1.30;;;;;;;21.27;94.95;101735.66;5066549;28;20475;-69
2021/07/08 10:39:42;;;;;;;1.50;1.37;;;;;;;21.25;94.99;101732.47;5056320;28;20477;-71
2021/07/08 10:42:08;;;;;;;1.73;1.63;;;;;;;21.22;95.59;101721.34;5066592;28;20417;-69
2021/07/08 10:44:43;;;;;;;1.83;1.50;;;;;;;21.18;96.10;101715.69;5076396;28;20485;-72
2021/07/08 10:47:33;;;;;;;1.90;1.70;;;;;;;21.14;95.45;101709.28;5076392;28;20441;-69
2021/07/08 10:50:00;;;;;;;2.10;1.77;;;;;;;21.15;93.22;101708.13;5076309;28;20461;-71
2021/07/08 10:52:42;;;;;;;2.33;1.60;;;;;;;21.21;93.49;101715.03;5076269;28;20518;-69
2021/07/08 10:55:11;;;;;;;1.73;1.37;;;;;;;21.28;94.36;101717.97;5075937;28;20968;-70
2021/07/08 10:57:38;;;;;;;2.00;1.60;;;;;;;21.30;95.11;101712.94;5076439;28;20449;-70
2021/07/08 11:00:07;;;;;;;1.70;1.30;;;;;;;21.32;95.19;101709.84;5075936;28;20472;-70
2021/07/08 11:02:47;;;;;;;1.90;1.70;;;;;;;21.36;95.24;101710.78;5075932;28;20860;-69
2021/07/08 11:05:14;;;;;;;1.90;1.50;;;;;;;21.42;94.63;101715.69;5076481;28;20506;-70
2021/07/08 11:07:49;;;;;;;1.50;1.20;;;;;;;21.47;95.25;101711.91;5076123;28;20445;-70
2021/07/08 11:10:32;;;;;;;1.43;1.27;;;;;;;21.54;93.69;101722.34;5075477;28;20485;-70
2021/07/08 11:13:28;;;;;;;3.07;2.03;;;;;;;21.59;93.38;101719.34;5076125;28;20431;-71
2021/07/08 11:15:55;;;;;;;1.40;1.30;;;;;;;21.62;93.56;101718.66;5075825;28;20429;-70
2021/07/08 11:18:32;;;;;;;1.63;1.50;;;;;;;21.70;93.53;101719.69;5076683;28;20449;-70
2021/07/08 11:20:59;;;;;;;2.33;1.50;;;;;;;21.70;91.24;101716.91;5075781;28;20964;-70
2021/07/08 11:23:39;;;;;;;1.53;1.13;;;;;;;21.71;89.58;101719.31;5069086;28;20818;-70
2021/07/08 11:26:08;;;;;;;1.60;1.20;;;;;;;21.71;87.61;101711.03;5076701;28;20863;-69
2021/07/08 11:28:35;;;;;;;1.47;1.30;;;;;;;21.71;87.60;101705.53;5076453;28;20434;-71